Home PIREPS Pireps

Flight WIN1048

  • Submitted By: AndrĂ© Vincent
  • Departure Airport: Bruxelles National (EBBR)
  • Arrival Airport: Boise Airport (KBOI)
  • Aircraft: YOUR CHOICE (YC)
  • Flight Time: 11.18
  • Date Submitted: 19/08/2017
  • Status: Accepted
Flight Details
Gross Revenue:
(25 load / € 0.00 per unit
€ 0.00
Fuel Cost:
(135840 fuel used @ 5.1 / unit)
€ 692,784.00

Additional Log Information:

View Log

Aircraft Used in flight is Boeing 747-400
22:42 Brakes are On
22:43 Brakes are Released
22:51 You Took off @ 233 Knots and Flaps at Position 2
Departure Weather
EBBR 182020Z 25008KT CAVOK 15/10 Q1014 NOSIGrn
22:51 Landing Gear Up @ 217 Knots and 430 Feet
22:52 Below 10000 feet you are not allowed to go over 250 knots
06:37 Overspeed
06:37 Recovered from Overspeed
06:44 Overspeed
06:44 Recovered from Overspeed
09:51 Landing Gear Down @ 205 Knots and 4880 Feet
09:54 You Landed @ 157 Knots and with -900 Vertical Speed
Arrival Weather
KBOI 190653Z 16004KT 10SM CLR 21/M02 A2999 RMK AO2 SLP125 T02111022 403330150rn
09:54 Your Landing was very hard
09:59 Brakes are On
10:00 Brussels Bel-Track1.0.1.2

Route Map

Corporate About Us Our Team Vacancies Information Fleet Route Network Rules and Regulations Operations Flight Schedules Event Center Tours Partners IVAO Vatsim Acars dev FSCB

fb Users Online Belgium Jos Viville,
2 Pilot(s) and 165 Guest(s) Online
CMS by phpVMS - Design by Crazycreatives.com - Copyright © 2018 - Brussels Airlines Virtual